createdAt,value
2022-10-17T00:01:08.764Z,26.40
2022-10-17T00:06:10.375Z,26.10
2022-10-17T00:08:39.386Z,28.40
2022-10-17T00:11:12.971Z,28.30
2022-10-17T00:13:42.939Z,27.20
2022-10-17T00:16:12.659Z,27.50
2022-10-17T00:18:40.796Z,26.30
2022-10-17T00:21:15.735Z,27.70
2022-10-17T00:23:43.375Z,28.20
2022-10-17T00:26:11.290Z,29.20
2022-10-17T00:28:39.681Z,26.10
2022-10-17T00:31:07.796Z,28.10
2022-10-17T00:33:36.402Z,23.80
2022-10-17T00:36:19.557Z,25.60
2022-10-17T00:38:50.229Z,28.40
2022-10-17T00:41:23.509Z,27.00
2022-10-17T00:44:03.343Z,27.70
2022-10-17T00:46:39.204Z,23.30
2022-10-17T00:49:12.580Z,25.30
2022-10-17T00:51:45.347Z,24.10
2022-10-17T00:54:16.192Z,24.20
2022-10-17T00:56:47.420Z,26.90
2022-10-17T00:59:18.813Z,27.20
2022-10-17T01:02:08.237Z,25.50
2022-10-17T01:04:44.600Z,25.70
2022-10-17T01:07:23.331Z,27.40
2022-10-17T01:09:55.935Z,25.30
2022-10-17T01:12:54.929Z,27.20
2022-10-17T01:16:10.792Z,26.90
2022-10-17T01:18:57.995Z,26.60
2022-10-17T01:21:40.999Z,28.30
2022-10-17T01:24:51.896Z,24.50
2022-10-17T01:27:39.145Z,25.00
2022-10-17T01:30:22.986Z,28.80
2022-10-17T01:33:20.904Z,26.20
2022-10-17T01:35:55.917Z,26.10
2022-10-17T01:38:35.642Z,27.10
2022-10-17T01:41:39.015Z,27.40
2022-10-17T01:44:27.276Z,28.10
2022-10-17T01:47:05.384Z,28.20
2022-10-17T01:52:35.350Z,25.50
2022-10-17T01:55:09.472Z,28.50
2022-10-17T01:57:41.979Z,27.10
2022-10-17T02:00:18.827Z,29.00
2022-10-17T02:03:05.199Z,27.50
2022-10-17T02:05:40.257Z,30.30
2022-10-17T02:08:08.632Z,29.20
2022-10-17T02:10:53.280Z,32.40
2022-10-17T02:13:46.706Z,31.20
2022-10-17T02:16:27.845Z,30.90
2022-10-17T02:19:34.935Z,28.70
2022-10-17T02:22:24.242Z,28.10
2022-10-17T02:25:01.314Z,27.30
2022-10-17T02:27:45.491Z,27.10
2022-10-17T02:30:27.439Z,28.20
2022-10-17T02:33:01.255Z,29.50
2022-10-17T02:35:35.799Z,28.10
2022-10-17T02:38:06.703Z,30.30
2022-10-17T02:40:36.256Z,26.60
2022-10-17T02:43:04.885Z,26.20
2022-10-17T02:45:36.171Z,28.70
2022-10-17T02:48:11.218Z,27.30
2022-10-17T02:50:52.494Z,26.20
2022-10-17T02:53:40.111Z,27.80
2022-10-17T02:56:18.299Z,27.90
2022-10-17T02:58:58.460Z,28.20
2022-10-17T03:01:27.387Z,23.70
2022-10-17T03:04:10.371Z,25.20
2022-10-17T03:06:39.082Z,24.80
2022-10-17T03:09:09.014Z,22.40
2022-10-17T03:11:36.853Z,24.60
2022-10-17T03:14:05.415Z,28.00
2022-10-17T03:16:33.262Z,24.20
2022-10-17T03:19:01.174Z,26.10
2022-10-17T03:21:29.354Z,29.80
2022-10-17T03:23:58.007Z,28.80
2022-10-17T03:26:26.060Z,27.40
2022-10-17T03:28:54.613Z,27.60
2022-10-17T03:31:23.306Z,27.30
2022-10-17T03:33:51.841Z,28.30
2022-10-17T03:36:21.590Z,26.40
2022-10-17T03:38:55.530Z,26.10
2022-10-17T03:41:23.720Z,28.90
2022-10-17T03:43:53.943Z,28.20
2022-10-17T03:46:22.174Z,26.40
2022-10-17T03:48:50.256Z,28.30
2022-10-17T03:51:19.715Z,28.40
2022-10-17T03:53:52.261Z,32.80
2022-10-17T03:56:23.179Z,28.20
2022-10-17T03:58:59.671Z,31.90
2022-10-17T04:01:30.007Z,30.10
2022-10-17T04:03:58.028Z,29.20
2022-10-17T04:06:28.106Z,28.80
2022-10-17T04:08:55.977Z,32.80
2022-10-17T04:11:28.799Z,29.60
2022-10-17T04:14:00.323Z,28.80
2022-10-17T04:16:28.992Z,27.80
2022-10-17T04:19:03.237Z,28.80
2022-10-17T04:21:38.703Z,32.40
2022-10-17T04:24:11.676Z,30.90
2022-10-17T04:26:52.367Z,28.10
2022-10-17T04:29:22.008Z,31.30
2022-10-17T04:31:53.061Z,28.60
2022-10-17T04:34:26.038Z,30.90
2022-10-17T04:36:53.815Z,31.10
2022-10-17T04:39:22.984Z,30.80
2022-10-17T04:41:51.837Z,29.70
2022-10-17T04:44:20.848Z,30.20
2022-10-17T04:46:51.818Z,32.60
2022-10-17T04:49:20.540Z,29.90
2022-10-17T04:51:50.739Z,28.00
2022-10-17T04:57:11.316Z,29.80
2022-10-17T04:59:39.997Z,33.40
2022-10-17T05:02:19.298Z,30.20
2022-10-17T05:04:47.146Z,32.40
2022-10-17T05:07:15.261Z,30.10
2022-10-17T05:10:00.103Z,30.70
2022-10-17T05:12:28.321Z,33.20
2022-10-17T05:14:56.087Z,31.70
2022-10-17T05:17:25.448Z,30.20
2022-10-17T05:19:53.825Z,29.60
2022-10-17T05:22:21.908Z,29.30
2022-10-17T05:24:50.616Z,28.80
2022-10-17T05:27:18.439Z,29.20
2022-10-17T05:29:46.743Z,28.00
2022-10-17T05:32:25.454Z,31.80
2022-10-17T05:34:53.231Z,31.20
2022-10-17T05:37:23.633Z,28.50
2022-10-17T05:39:52.881Z,32.00
2022-10-17T05:42:20.967Z,31.10
2022-10-17T05:44:49.132Z,26.80
2022-10-17T05:47:18.561Z,30.30
2022-10-17T05:49:51.421Z,34.00
2022-10-17T05:52:22.748Z,34.50
2022-10-17T05:54:59.999Z,33.40
2022-10-17T05:57:28.517Z,33.20
2022-10-17T05:59:57.647Z,33.20
2022-10-17T06:02:25.568Z,30.00
2022-10-17T06:04:53.672Z,29.10
2022-10-17T06:07:22.317Z,28.00
2022-10-17T06:09:50.459Z,30.80
2022-10-17T06:12:18.357Z,28.20
2022-10-17T06:14:48.358Z,32.90
2022-10-17T06:17:16.900Z,32.70
2022-10-17T06:19:45.389Z,30.60
2022-10-17T06:22:15.461Z,31.40
2022-10-17T06:24:44.193Z,29.00
2022-10-17T06:27:13.724Z,29.90
2022-10-17T06:29:42.519Z,28.80
2022-10-17T06:32:14.271Z,26.90
2022-10-17T06:34:44.767Z,26.50
2022-10-17T06:37:13.401Z,31.90
2022-10-17T06:39:43.585Z,25.90
2022-10-17T06:42:15.133Z,26.70
2022-10-17T06:45:09.943Z,30.50
2022-10-17T06:47:46.123Z,26.20
2022-10-17T06:50:27.803Z,29.00
2022-10-17T06:53:30.504Z,24.30
2022-10-17T06:56:16.195Z,29.90
2022-10-17T06:59:10.379Z,27.40
2022-10-17T07:01:46.968Z,29.00
2022-10-17T07:04:17.178Z,27.70
2022-10-17T07:06:45.005Z,26.80
2022-10-17T07:09:19.068Z,27.50
2022-10-17T07:11:48.473Z,24.50
2022-10-17T07:14:19.676Z,26.70
2022-10-17T07:16:48.123Z,38.60
2022-10-17T07:19:21.874Z,26.60
2022-10-17T07:21:50.931Z,25.90
2022-10-17T07:24:18.762Z,24.70
2022-10-17T07:26:50.494Z,22.00
2022-10-17T07:29:19.364Z,25.40
2022-10-17T07:31:57.905Z,24.70
2022-10-17T07:34:28.401Z,31.70
2022-10-17T07:36:56.191Z,23.00
2022-10-17T07:39:25.048Z,23.80
2022-10-17T07:41:52.755Z,25.10
2022-10-17T07:44:20.560Z,20.90
2022-10-17T07:46:51.283Z,23.50
2022-10-17T07:49:19.736Z,23.40
2022-10-17T07:51:49.067Z,22.60
2022-10-17T07:54:17.547Z,21.50
2022-10-17T07:56:51.514Z,27.00
2022-10-17T07:59:22.102Z,25.70
2022-10-17T08:01:49.857Z,24.60
2022-10-17T08:04:17.606Z,22.00
2022-10-17T08:06:45.623Z,21.90
2022-10-17T08:09:13.413Z,22.90
2022-10-17T08:11:41.236Z,26.40
2022-10-17T08:14:10.212Z,22.20
2022-10-17T08:16:38.222Z,21.60
2022-10-17T08:21:42.073Z,23.10
2022-10-17T08:24:11.228Z,20.30
2022-10-17T08:26:43.510Z,23.70
2022-10-17T08:29:16.974Z,22.50
2022-10-17T08:31:47.850Z,21.30
2022-10-17T08:34:17.756Z,20.70
2022-10-17T08:36:45.542Z,20.00
2022-10-17T08:39:16.572Z,21.30
2022-10-17T08:42:12.281Z,17.90
2022-10-17T08:45:00.238Z,18.50
2022-10-17T08:47:35.796Z,22.90
2022-10-17T08:50:08.615Z,21.40
2022-10-17T08:52:51.697Z,20.20
2022-10-17T08:55:45.600Z,20.00
2022-10-17T08:58:26.402Z,21.10
2022-10-17T09:01:13.704Z,22.60
2022-10-17T09:04:06.056Z,20.60
2022-10-17T09:06:48.221Z,19.20
2022-10-17T09:09:40.646Z,19.00
2022-10-17T09:12:18.160Z,18.70
2022-10-17T09:15:12.634Z,18.80
2022-10-17T09:17:53.026Z,20.00
2022-10-17T09:21:02.213Z,18.00
2022-10-17T09:24:03.979Z,18.70
2022-10-17T09:26:41.550Z,18.00
